This is the latest recevied weather packets stored in our database for station/object SP9MUF-14. If no packets are shown the sender has not sent any weather packets the latest 10 day(s).
| Time | Temp. | Humidity | Pressure | Rain* | Wind** | Luminosity | Snow |
|---|---|---|---|---|---|---|---|
| 1787403756 | 22.78° C | 49% | 1013 hPa | 0 mm | - | 541 W/m² | - |
| 1787403152 | 22.78° C | 49% | 1013 hPa | 0 mm | - | 539 W/m² | - |
| 1787402849 | 22.78° C | 48% | 1013 hPa | 0 mm | - | 559 W/m² | - |
| 1787402547 | 21.67° C | 50% | 1013.2 hPa | 0 mm | - | 570 W/m² | - |
| 1787402245 | 22.78° C | 50% | 1013.1 hPa | 0 mm | - | 565 W/m² | - |
| 1787401942 | 22.78° C | 53% | 1013.2 hPa | 0 mm | - | 582 W/m² | - |
| 1787401640 | 21.67° C | 52% | 1013.2 hPa | 0 mm | - | 602 W/m² | - |
| 1787401338 | 20.56° C | 55% | 1013.2 hPa | 0 mm | - | 680 W/m² | - |
| 1787401035 | 20.56° C | 54% | 1013.2 hPa | 0 mm | - | 160 W/m² | - |
| 1787400733 | 20.56° C | 56% | 1013.2 hPa | 0 mm | - | 184 W/m² | - |
| 1787400129 | 21.67° C | 55% | 1013.2 hPa | 0 mm | - | 461 W/m² | - |
| 1787399524 | 21.67° C | 54% | 1013.2 hPa | 0 mm | - | 199 W/m² | - |
| 1787399222 | 20.56° C | 54% | 1011.5 hPa | 0 mm | - | 742 W/m² | - |
| 1787398920 | 21.67° C | 56% | 1013.2 hPa | 0 mm | - | 228 W/m² | - |
| 1787398617 | 21.67° C | 53% | 1013.2 hPa | 0 mm | - | 286 W/m² | - |
| 1787398315 | 20.56° C | 57% | 1013.1 hPa | 0 mm | - | 698 W/m² | - |
| 1787398013 | 20.56° C | 58% | 1013.1 hPa | 0 mm | - | 212 W/m² | - |
| 1787397710 | 21.67° C | 58% | 1013.1 hPa | 0 mm | - | 498 W/m² | - |
| 1787397408 | 20.56° C | 58% | 1013.1 hPa | 0 mm | - | 702 W/m² | - |
| 1787397106 | 20.56° C | 58% | 1013.1 hPa | 0 mm | - | 651 W/m² | - |
| 1787396502 | 20.56° C | 60% | 1013.3 hPa | 0 mm | - | 797 W/m² | - |
| 1787396199 | 20° C | 60% | 1013.4 hPa | 0 mm | - | 115 W/m² | - |
| 1787395897 | 21.67° C | 56% | 1013.1 hPa | 0 mm | - | 181 W/m² | - |
| 1787395595 | 20.56° C | 58% | 1013.1 hPa | 0 mm | - | 549 W/m² | - |
| 1787395292 | 20° C | 59% | 1013.2 hPa | 0 mm | - | 701 W/m² | - |
* Rain latest hour (hover to see other rain measurements)
** Current wind speed in m/s (hover to see current wind gust speed)